createdAt,value
2017-07-30T00:02:08.546Z,19.50
2017-07-30T00:04:35.974Z,19.50
2017-07-30T00:07:03.402Z,19.60
2017-07-30T00:09:30.835Z,19.60
2017-07-30T00:11:58.278Z,19.60
2017-07-30T00:14:25.738Z,19.60
2017-07-30T00:16:53.194Z,19.60
2017-07-30T00:19:20.642Z,19.60
2017-07-30T00:21:48.090Z,19.60
2017-07-30T00:24:15.533Z,19.60
2017-07-30T00:26:42.971Z,19.60
2017-07-30T00:29:10.416Z,19.60
2017-07-30T00:31:37.850Z,19.60
2017-07-30T00:34:05.291Z,19.60
2017-07-30T00:36:32.739Z,19.70
2017-07-30T00:39:00.189Z,19.70
2017-07-30T00:41:27.622Z,19.60
2017-07-30T00:43:55.071Z,19.60
2017-07-30T00:46:22.510Z,19.60
2017-07-30T00:48:49.963Z,19.60
2017-07-30T00:51:17.398Z,19.60
2017-07-30T00:53:44.834Z,19.60
2017-07-30T00:56:12.284Z,19.60
2017-07-30T00:58:39.727Z,19.50
2017-07-30T01:01:07.170Z,19.50
2017-07-30T01:03:34.602Z,19.40
2017-07-30T01:06:02.044Z,19.40
2017-07-30T01:08:29.474Z,19.40
2017-07-30T01:10:56.910Z,19.30
2017-07-30T01:13:24.371Z,19.40
2017-07-30T01:15:51.809Z,19.40
2017-07-30T01:18:19.247Z,19.40
2017-07-30T01:20:46.695Z,19.30
2017-07-30T01:23:14.135Z,19.30
2017-07-30T01:25:41.749Z,19.20
2017-07-30T01:28:09.189Z,19.20
2017-07-30T01:30:36.626Z,19.20
2017-07-30T01:33:04.063Z,19.20
2017-07-30T01:35:31.503Z,19.20
2017-07-30T01:37:58.964Z,19.30
2017-07-30T01:40:26.387Z,19.30
2017-07-30T01:42:53.838Z,19.30
2017-07-30T01:45:21.278Z,19.40
2017-07-30T01:47:48.718Z,19.40
2017-07-30T01:50:16.162Z,19.50
2017-07-30T01:52:43.596Z,19.40
2017-07-30T01:55:11.034Z,19.40
2017-07-30T01:57:38.472Z,19.40
2017-07-30T02:00:05.902Z,19.20
2017-07-30T02:02:33.358Z,18.80
2017-07-30T02:05:00.797Z,18.80
2017-07-30T02:07:28.255Z,18.80
2017-07-30T02:09:55.695Z,19.00
2017-07-30T02:12:23.129Z,19.00
2017-07-30T02:14:50.559Z,18.80
2017-07-30T02:17:18.007Z,18.70
2017-07-30T02:19:45.467Z,18.70
2017-07-30T02:22:12.893Z,18.90
2017-07-30T02:24:40.341Z,18.80
2017-07-30T02:27:07.768Z,18.70
2017-07-30T02:29:35.209Z,18.80
2017-07-30T02:32:02.740Z,18.80
2017-07-30T02:34:30.155Z,18.90
2017-07-30T02:36:57.587Z,18.80
2017-07-30T02:39:25.027Z,18.80
2017-07-30T02:41:52.466Z,18.80
2017-07-30T02:44:19.932Z,18.80
2017-07-30T02:46:47.375Z,18.90
2017-07-30T02:49:14.798Z,18.80
2017-07-30T02:51:42.288Z,18.80
2017-07-30T02:54:09.698Z,18.80
2017-07-30T02:56:37.135Z,18.70
2017-07-30T02:59:04.574Z,18.70
2017-07-30T03:01:32.006Z,18.60
2017-07-30T03:03:59.471Z,18.70
2017-07-30T03:06:26.896Z,18.70
2017-07-30T03:08:54.334Z,18.80
2017-07-30T03:11:21.774Z,18.80
2017-07-30T03:13:49.214Z,18.80
2017-07-30T03:16:16.662Z,18.70
2017-07-30T03:18:44.117Z,18.60
2017-07-30T03:21:11.556Z,18.70
2017-07-30T03:23:39.118Z,18.60
2017-07-30T03:26:06.660Z,18.50
2017-07-30T03:28:34.101Z,18.60
2017-07-30T03:31:01.544Z,18.70
2017-07-30T03:33:28.980Z,18.70
2017-07-30T03:35:56.418Z,18.70
2017-07-30T03:38:23.862Z,18.70
2017-07-30T03:40:51.299Z,18.70
2017-07-30T03:43:18.731Z,18.80
2017-07-30T03:45:46.181Z,18.80
2017-07-30T03:48:13.622Z,18.80
2017-07-30T03:50:41.063Z,18.90
2017-07-30T03:53:08.507Z,19.00
2017-07-30T03:55:35.964Z,19.10
2017-07-30T03:58:03.390Z,19.10
2017-07-30T04:00:30.839Z,19.10
2017-07-30T04:02:58.274Z,19.10
2017-07-30T04:05:25.730Z,19.10
2017-07-30T04:07:53.173Z,19.20
2017-07-30T04:10:20.599Z,19.10
2017-07-30T04:12:48.190Z,19.20
2017-07-30T04:15:15.632Z,19.20
2017-07-30T04:17:43.086Z,19.20
2017-07-30T04:20:10.543Z,19.10
2017-07-30T04:22:37.986Z,19.30
2017-07-30T04:25:05.422Z,19.30
2017-07-30T04:27:32.856Z,19.30
2017-07-30T04:30:00.298Z,19.30
2017-07-30T04:32:27.755Z,19.30
2017-07-30T04:34:55.170Z,19.40
2017-07-30T04:37:22.626Z,19.50
2017-07-30T04:39:50.062Z,19.60
2017-07-30T04:42:17.494Z,19.60
2017-07-30T04:44:44.927Z,19.70
2017-07-30T04:47:12.369Z,19.70
2017-07-30T04:49:39.811Z,19.70
2017-07-30T04:52:07.279Z,19.70
2017-07-30T04:54:34.719Z,19.80
2017-07-30T04:57:02.163Z,19.90
2017-07-30T04:59:29.591Z,20.10
2017-07-30T05:01:57.027Z,20.20
2017-07-30T05:04:24.526Z,20.20
2017-07-30T05:06:51.954Z,20.10
2017-07-30T05:09:19.747Z,20.30
2017-07-30T05:11:47.189Z,20.20
2017-07-30T05:14:14.771Z,20.30
2017-07-30T05:16:42.252Z,20.40
2017-07-30T05:19:09.664Z,20.50
2017-07-30T05:21:37.093Z,20.50
2017-07-30T05:24:04.517Z,20.50
2017-07-30T05:26:31.974Z,20.60
2017-07-30T05:28:59.380Z,20.70
2017-07-30T05:31:26.823Z,20.80
2017-07-30T05:33:54.255Z,20.80
2017-07-30T05:36:21.695Z,20.80
2017-07-30T05:38:49.120Z,20.80
2017-07-30T05:41:16.578Z,20.90
2017-07-30T05:43:44.019Z,21.00
2017-07-30T05:46:11.454Z,20.90
2017-07-30T05:48:38.886Z,20.90
2017-07-30T05:51:06.329Z,21.00
2017-07-30T05:53:33.772Z,21.10
2017-07-30T05:56:01.221Z,21.10
2017-07-30T05:58:28.645Z,21.10
2017-07-30T06:00:56.066Z,21.10
2017-07-30T06:03:23.511Z,21.10
2017-07-30T06:05:50.967Z,21.20
2017-07-30T06:08:18.394Z,21.20
2017-07-30T06:10:45.832Z,21.20
2017-07-30T06:13:13.254Z,21.40
2017-07-30T06:15:40.678Z,21.40
2017-07-30T06:18:08.114Z,21.50
2017-07-30T06:20:35.542Z,21.70
2017-07-30T06:23:02.964Z,21.70
2017-07-30T06:25:30.406Z,21.90
2017-07-30T06:27:57.834Z,22.00
2017-07-30T06:30:25.285Z,22.10
2017-07-30T06:32:52.702Z,22.40
2017-07-30T06:35:20.310Z,22.60
2017-07-30T06:37:47.741Z,22.60
2017-07-30T06:40:15.175Z,22.70
2017-07-30T06:42:42.655Z,22.70
2017-07-30T06:45:10.071Z,22.80
2017-07-30T06:47:37.511Z,22.80
2017-07-30T06:50:04.935Z,22.80
2017-07-30T06:52:32.373Z,22.60
2017-07-30T06:54:59.796Z,22.60
2017-07-30T06:57:27.234Z,22.50
2017-07-30T06:59:54.663Z,22.50
2017-07-30T07:02:22.118Z,22.50
2017-07-30T07:04:49.551Z,22.40
2017-07-30T07:07:17.054Z,22.30
2017-07-30T07:09:44.500Z,22.30
2017-07-30T07:12:11.926Z,22.20
2017-07-30T07:14:39.360Z,22.00
2017-07-30T07:17:06.802Z,21.90
2017-07-30T07:19:34.228Z,21.80
2017-07-30T07:22:01.743Z,21.80
2017-07-30T07:24:29.191Z,21.80
2017-07-30T07:26:56.630Z,21.80
2017-07-30T07:29:24.126Z,21.90
2017-07-30T07:31:51.575Z,22.00
2017-07-30T07:34:19.000Z,22.00
2017-07-30T07:36:46.436Z,22.10
2017-07-30T07:39:13.938Z,22.40
2017-07-30T07:41:41.358Z,22.50
2017-07-30T07:44:08.828Z,22.70
2017-07-30T07:46:36.264Z,22.70
2017-07-30T07:49:03.690Z,22.80
2017-07-30T07:51:31.114Z,23.00
2017-07-30T07:53:58.542Z,23.00
2017-07-30T07:56:25.970Z,23.10
2017-07-30T07:58:53.415Z,23.30
2017-07-30T08:01:20.859Z,23.30
2017-07-30T08:03:48.283Z,23.20
2017-07-30T08:06:15.715Z,23.20
2017-07-30T08:08:43.170Z,23.20
2017-07-30T08:11:10.595Z,23.20
2017-07-30T08:13:38.046Z,23.30
2017-07-30T08:16:05.474Z,23.30
2017-07-30T08:18:32.903Z,23.40
2017-07-30T08:21:00.346Z,23.50
2017-07-30T08:23:27.782Z,23.60
2017-07-30T08:25:55.237Z,23.60
2017-07-30T08:28:22.713Z,23.60
2017-07-30T08:30:50.192Z,23.70
2017-07-30T08:33:17.618Z,23.70
2017-07-30T08:35:45.047Z,23.70
2017-07-30T08:38:12.488Z,23.70
2017-07-30T08:40:39.951Z,23.70
2017-07-30T08:43:07.416Z,23.80
2017-07-30T08:45:34.890Z,23.80
2017-07-30T08:48:02.399Z,23.90
2017-07-30T08:50:29.938Z,24.10
2017-07-30T08:52:57.406Z,24.10
2017-07-30T08:55:24.826Z,24.20
2017-07-30T08:57:52.270Z,24.30
2017-07-30T09:00:19.713Z,24.40
2017-07-30T09:02:47.151Z,24.50
2017-07-30T09:05:14.599Z,24.50
2017-07-30T09:07:42.023Z,24.70
2017-07-30T09:10:09.454Z,24.80
2017-07-30T09:12:36.901Z,24.90
2017-07-30T09:15:04.331Z,25.00
2017-07-30T09:17:31.847Z,25.10
2017-07-30T09:19:59.295Z,25.30
2017-07-30T09:22:26.900Z,25.30
2017-07-30T09:24:54.423Z,25.40
2017-07-30T09:27:21.923Z,25.40
2017-07-30T09:29:49.347Z,25.60
2017-07-30T09:32:16.780Z,25.80
2017-07-30T09:34:44.235Z,26.00
2017-07-30T09:37:11.674Z,26.10
2017-07-30T09:39:39.122Z,26.30
2017-07-30T09:42:06.779Z,26.40
2017-07-30T09:44:34.202Z,26.40
2017-07-30T09:47:01.635Z,26.40
2017-07-30T09:49:29.091Z,26.60
2017-07-30T09:51:56.529Z,26.50
2017-07-30T09:54:23.998Z,26.50
2017-07-30T09:56:51.437Z,26.70
2017-07-30T09:59:18.858Z,26.90
2017-07-30T10:01:46.318Z,27.00
2017-07-30T10:04:13.748Z,27.20
2017-07-30T10:06:41.186Z,27.20
2017-07-30T10:09:08.626Z,27.40
2017-07-30T10:11:36.090Z,27.70
2017-07-30T10:14:03.538Z,27.70
2017-07-30T10:16:30.985Z,27.80
2017-07-30T10:18:58.436Z,27.70
2017-07-30T10:21:25.877Z,27.70
2017-07-30T10:23:53.307Z,27.50
2017-07-30T10:26:20.739Z,27.20
2017-07-30T10:28:48.186Z,26.90
2017-07-30T10:31:15.624Z,26.90
2017-07-30T10:33:43.073Z,26.90
2017-07-30T10:36:10.509Z,27.10
2017-07-30T10:38:37.938Z,27.20
2017-07-30T10:41:05.395Z,27.10
2017-07-30T10:43:32.814Z,27.10
2017-07-30T10:46:00.259Z,27.40
2017-07-30T10:48:27.690Z,27.50
2017-07-30T10:50:55.118Z,27.30
2017-07-30T10:53:22.561Z,27.40
2017-07-30T10:55:50.008Z,27.70
2017-07-30T10:58:17.434Z,27.90
2017-07-30T11:00:44.874Z,27.90
2017-07-30T11:03:12.295Z,28.10
2017-07-30T11:05:39.724Z,28.20
2017-07-30T11:08:07.166Z,28.10
2017-07-30T11:10:35.128Z,28.10
2017-07-30T11:13:02.563Z,27.90
2017-07-30T11:15:29.982Z,27.90
2017-07-30T11:17:57.412Z,27.80
2017-07-30T11:20:24.856Z,27.80
2017-07-30T11:22:52.287Z,26.70
2017-07-30T11:25:19.702Z,27.90
2017-07-30T11:27:47.145Z,27.90
2017-07-30T11:30:14.574Z,27.90
2017-07-30T11:32:42.031Z,27.70
2017-07-30T11:35:09.453Z,27.60
2017-07-30T11:37:36.877Z,27.80
2017-07-30T11:40:04.311Z,27.80
2017-07-30T11:42:31.772Z,27.60
2017-07-30T11:44:59.198Z,27.50
2017-07-30T11:47:26.635Z,27.40
2017-07-30T11:49:54.066Z,28.20
2017-07-30T11:52:21.518Z,27.60
2017-07-30T11:54:48.935Z,27.70
2017-07-30T11:57:16.360Z,27.60
2017-07-30T11:59:44.047Z,27.60
2017-07-30T12:02:11.475Z,27.60
2017-07-30T12:04:38.907Z,27.60
2017-07-30T12:07:06.336Z,27.70
2017-07-30T12:09:33.790Z,27.70
2017-07-30T12:12:01.215Z,27.60
2017-07-30T12:14:28.650Z,27.40
2017-07-30T12:16:56.084Z,27.30
2017-07-30T12:19:23.510Z,27.40
2017-07-30T12:21:50.960Z,27.40
2017-07-30T12:24:18.394Z,27.40
2017-07-30T12:26:45.822Z,27.20
2017-07-30T12:29:13.266Z,27.20
2017-07-30T12:31:40.694Z,27.20
2017-07-30T12:34:08.261Z,27.30
2017-07-30T12:36:35.704Z,27.10
2017-07-30T12:39:03.135Z,27.00
2017-07-30T12:41:30.574Z,27.00
2017-07-30T12:43:58.010Z,26.90
2017-07-30T12:46:25.447Z,26.90
2017-07-30T12:48:52.880Z,26.90
2017-07-30T12:51:20.352Z,26.90
2017-07-30T12:53:47.792Z,26.90
2017-07-30T12:56:15.214Z,26.90
2017-07-30T12:58:42.657Z,27.10
2017-07-30T13:01:10.093Z,27.20
2017-07-30T13:03:37.513Z,27.00
2017-07-30T13:06:04.950Z,26.90
2017-07-30T13:08:32.382Z,26.80
2017-07-30T13:10:59.815Z,26.70
2017-07-30T13:13:27.263Z,26.90
2017-07-30T13:15:54.711Z,26.80
2017-07-30T13:18:22.159Z,26.90
2017-07-30T13:20:49.603Z,27.10
2017-07-30T13:23:17.041Z,27.10
2017-07-30T13:25:44.502Z,27.20
2017-07-30T13:28:11.974Z,27.20
2017-07-30T13:30:39.391Z,27.10
2017-07-30T13:33:06.820Z,27.10
2017-07-30T13:35:34.259Z,27.00
2017-07-30T13:38:01.698Z,26.90
2017-07-30T13:40:29.131Z,27.00
2017-07-30T13:42:56.569Z,27.00
2017-07-30T13:45:24.003Z,26.90
2017-07-30T13:47:51.435Z,27.00
2017-07-30T13:50:18.888Z,27.10
2017-07-30T13:52:46.307Z,27.20
2017-07-30T13:55:13.747Z,27.30
2017-07-30T13:57:41.179Z,27.40
2017-07-30T14:00:08.626Z,27.40
2017-07-30T14:02:36.052Z,27.50
2017-07-30T14:05:03.495Z,27.50
2017-07-30T14:07:30.926Z,27.20
2017-07-30T14:09:58.354Z,27.10
2017-07-30T14:12:25.793Z,27.20
2017-07-30T14:14:53.238Z,27.20
2017-07-30T14:17:20.657Z,27.40
2017-07-30T14:19:48.086Z,27.60
2017-07-30T14:22:15.533Z,26.30
2017-07-30T14:24:42.987Z,28.00
2017-07-30T14:27:10.434Z,28.00
2017-07-30T14:29:37.862Z,27.90
2017-07-30T14:32:05.318Z,27.70
2017-07-30T14:34:32.735Z,27.80
2017-07-30T14:37:00.173Z,27.90
2017-07-30T14:39:27.610Z,28.20
2017-07-30T14:41:55.057Z,28.20
2017-07-30T14:44:22.491Z,28.30
2017-07-30T14:46:49.922Z,28.30
2017-07-30T14:49:17.343Z,28.40
2017-07-30T14:51:44.776Z,28.20
2017-07-30T14:54:12.210Z,28.10
2017-07-30T14:56:39.652Z,28.00
2017-07-30T14:59:07.103Z,27.70
2017-07-30T15:01:34.554Z,27.70
2017-07-30T15:04:01.986Z,27.60
2017-07-30T15:06:29.419Z,27.60
2017-07-30T15:08:56.847Z,27.70
2017-07-30T15:11:24.295Z,27.80
2017-07-30T15:13:51.738Z,28.00
2017-07-30T15:16:19.170Z,27.80
2017-07-30T15:18:46.606Z,27.70
2017-07-30T15:21:14.038Z,27.70
2017-07-30T15:23:41.493Z,27.70
2017-07-30T15:26:08.918Z,27.60
2017-07-30T15:28:36.363Z,27.60
2017-07-30T15:31:03.804Z,27.80
2017-07-30T15:33:31.236Z,27.60
2017-07-30T15:35:58.669Z,27.70
2017-07-30T15:38:26.102Z,28.10
2017-07-30T15:40:53.551Z,28.90
2017-07-30T15:43:20.994Z,29.70
2017-07-30T15:45:48.437Z,29.00
2017-07-30T15:48:15.887Z,28.90
2017-07-30T15:50:43.323Z,28.40
2017-07-30T15:53:10.754Z,27.70
2017-07-30T15:55:38.179Z,27.30
2017-07-30T15:58:05.629Z,27.40
2017-07-30T16:00:33.063Z,27.20
2017-07-30T16:03:00.496Z,27.40
2017-07-30T16:05:27.926Z,27.10
2017-07-30T16:07:55.371Z,26.80
2017-07-30T16:10:22.798Z,26.70
2017-07-30T16:12:50.223Z,26.30
2017-07-30T16:15:17.647Z,25.60
2017-07-30T16:17:45.079Z,25.00
2017-07-30T16:20:12.521Z,24.60
2017-07-30T16:22:39.951Z,24.40
2017-07-30T16:25:07.386Z,24.60
2017-07-30T16:27:34.806Z,24.70
2017-07-30T16:30:02.250Z,24.60
2017-07-30T16:32:29.686Z,24.50
2017-07-30T16:34:57.111Z,24.40
2017-07-30T16:37:24.548Z,24.00
2017-07-30T16:39:51.976Z,24.10
2017-07-30T16:42:19.411Z,24.50
2017-07-30T16:44:46.889Z,25.00
2017-07-30T16:47:14.326Z,25.40
2017-07-30T16:49:41.745Z,24.90
2017-07-30T16:52:09.192Z,24.50
2017-07-30T16:54:36.687Z,24.20
2017-07-30T16:57:04.197Z,24.10
2017-07-30T16:59:31.623Z,24.00
2017-07-30T17:01:59.053Z,24.00
2017-07-30T17:04:26.474Z,23.90
2017-07-30T17:06:53.927Z,24.20
2017-07-30T17:09:21.354Z,24.80
2017-07-30T17:11:48.799Z,25.60
2017-07-30T17:14:16.222Z,26.20
2017-07-30T17:16:43.686Z,26.70
2017-07-30T17:19:11.206Z,26.20
2017-07-30T17:21:38.623Z,25.50
2017-07-30T17:24:06.053Z,24.80
2017-07-30T17:26:33.474Z,24.30
2017-07-30T17:29:00.923Z,24.10
2017-07-30T17:31:28.366Z,23.80
2017-07-30T17:33:55.798Z,23.50
2017-07-30T17:36:23.782Z,23.30
2017-07-30T17:38:51.235Z,23.00
2017-07-30T17:41:18.667Z,22.80
2017-07-30T17:43:46.098Z,22.50
2017-07-30T17:46:13.530Z,22.30
2017-07-30T17:48:40.990Z,22.20
2017-07-30T17:51:08.421Z,22.10
2017-07-30T17:53:35.850Z,22.10
2017-07-30T17:56:03.316Z,22.10
2017-07-30T17:58:30.768Z,21.90
2017-07-30T18:00:58.191Z,21.90
2017-07-30T18:03:25.635Z,21.80
2017-07-30T18:05:53.109Z,21.70
2017-07-30T18:08:20.547Z,21.70
2017-07-30T18:10:47.983Z,21.70
2017-07-30T18:13:15.421Z,21.70
2017-07-30T18:15:42.842Z,21.70
2017-07-30T18:18:10.278Z,21.70
2017-07-30T18:20:37.709Z,21.70
2017-07-30T18:23:05.144Z,21.70
2017-07-30T18:25:32.817Z,21.80
2017-07-30T18:28:00.720Z,21.90
2017-07-30T18:30:28.721Z,22.00
2017-07-30T18:32:56.711Z,22.00
2017-07-30T18:35:24.201Z,21.90
2017-07-30T18:37:51.625Z,21.90
2017-07-30T18:40:19.083Z,21.80
2017-07-30T18:42:46.516Z,21.70
2017-07-30T18:45:13.951Z,21.50
2017-07-30T18:47:41.383Z,21.40
2017-07-30T18:50:08.833Z,21.30
2017-07-30T18:52:36.267Z,21.20
2017-07-30T18:55:03.720Z,21.10
2017-07-30T18:57:31.152Z,21.10
2017-07-30T18:59:58.590Z,21.00
2017-07-30T19:02:26.038Z,20.90
2017-07-30T19:04:53.506Z,20.60
2017-07-30T19:07:20.942Z,20.60
2017-07-30T19:09:48.387Z,20.50
2017-07-30T19:12:15.815Z,20.40
2017-07-30T19:14:43.258Z,20.20
2017-07-30T19:17:10.691Z,20.20
2017-07-30T19:19:38.123Z,20.10
2017-07-30T19:22:05.565Z,20.00
2017-07-30T19:24:33.003Z,20.00
2017-07-30T19:27:00.438Z,19.90
2017-07-30T19:29:27.885Z,19.80
2017-07-30T19:31:55.333Z,19.80
2017-07-30T19:34:22.758Z,19.70
2017-07-30T19:36:50.195Z,19.70
2017-07-30T19:39:17.650Z,19.60
2017-07-30T19:41:45.091Z,19.50
2017-07-30T19:44:12.514Z,19.50
2017-07-30T19:46:39.977Z,19.40
2017-07-30T19:49:07.465Z,19.30
2017-07-30T19:51:34.949Z,19.30
2017-07-30T19:54:02.394Z,19.20
2017-07-30T19:56:29.814Z,19.20
2017-07-30T19:58:57.263Z,19.20
2017-07-30T20:01:24.683Z,19.20
2017-07-30T20:03:52.132Z,19.20
2017-07-30T20:06:19.607Z,19.10
2017-07-30T20:08:47.074Z,19.00
2017-07-30T20:11:14.523Z,19.00
2017-07-30T20:13:41.970Z,19.00
2017-07-30T20:16:09.397Z,18.90
2017-07-30T20:18:36.825Z,18.90
2017-07-30T20:21:04.280Z,18.90
2017-07-30T20:23:31.736Z,18.90
2017-07-30T20:25:59.165Z,18.90
2017-07-30T20:28:26.600Z,18.80
2017-07-30T20:30:54.024Z,18.80
2017-07-30T20:33:21.467Z,18.80
2017-07-30T20:35:48.893Z,18.70
2017-07-30T20:38:16.369Z,18.70
2017-07-30T20:40:43.794Z,18.70
2017-07-30T20:43:11.242Z,18.70
2017-07-30T20:45:39.606Z,18.70
2017-07-30T20:48:07.036Z,18.70
2017-07-30T20:50:39.693Z,18.70
2017-07-30T20:53:07.127Z,18.60
2017-07-30T20:55:34.566Z,18.60
2017-07-30T20:58:02.007Z,18.60
2017-07-30T21:00:29.448Z,18.60
2017-07-30T21:02:56.880Z,18.50
2017-07-30T21:05:24.307Z,18.60
2017-07-30T21:07:51.734Z,18.50
2017-07-30T21:10:19.192Z,18.50
2017-07-30T21:12:46.681Z,18.40
2017-07-30T21:15:14.120Z,18.40
2017-07-30T21:17:41.596Z,18.40
2017-07-30T21:20:09.025Z,18.40
2017-07-30T21:22:36.462Z,18.40
2017-07-30T21:25:03.894Z,18.40
2017-07-30T21:27:31.322Z,18.50
2017-07-30T21:29:58.775Z,18.60
2017-07-30T21:32:26.199Z,18.60
2017-07-30T21:34:53.641Z,18.60
2017-07-30T21:37:21.070Z,18.60
2017-07-30T21:39:48.534Z,18.60
2017-07-30T21:42:15.960Z,18.60
2017-07-30T21:44:43.392Z,18.60
2017-07-30T21:47:10.814Z,18.70
2017-07-30T21:49:38.249Z,18.60
2017-07-30T21:52:05.681Z,18.70
2017-07-30T21:54:33.118Z,18.80
2017-07-30T21:57:00.560Z,18.90
2017-07-30T21:59:27.985Z,18.90
2017-07-30T22:01:55.440Z,18.70
2017-07-30T22:04:22.870Z,18.70
2017-07-30T22:06:50.314Z,18.80
2017-07-30T22:09:17.746Z,18.90
2017-07-30T22:11:45.183Z,18.90
2017-07-30T22:14:12.639Z,18.80
2017-07-30T22:16:40.049Z,18.70
2017-07-30T22:19:07.480Z,18.70
2017-07-30T22:21:34.901Z,18.60
2017-07-30T22:24:02.352Z,18.50
2017-07-30T22:26:30.574Z,18.40
2017-07-30T22:28:58.008Z,18.40
2017-07-30T22:31:25.437Z,18.30
2017-07-30T22:33:52.882Z,18.40
2017-07-30T22:36:20.302Z,18.50
2017-07-30T22:38:47.755Z,18.60
2017-07-30T22:41:15.190Z,18.60
2017-07-30T22:43:42.614Z,18.60
2017-07-30T22:46:10.063Z,18.70
2017-07-30T22:48:37.503Z,18.70
2017-07-30T22:51:04.942Z,18.70
2017-07-30T22:53:32.370Z,18.70
2017-07-30T22:55:59.823Z,18.70
2017-07-30T22:58:27.250Z,18.70
2017-07-30T23:00:54.688Z,18.70
2017-07-30T23:03:22.124Z,18.70
2017-07-30T23:05:49.546Z,18.60
2017-07-30T23:08:17.004Z,18.70
2017-07-30T23:10:44.434Z,18.70
2017-07-30T23:13:11.889Z,18.70
2017-07-30T23:15:39.314Z,18.70
2017-07-30T23:18:06.754Z,18.50
2017-07-30T23:20:34.192Z,18.40
2017-07-30T23:25:35.590Z,18.50
2017-07-30T23:28:03.029Z,18.50
2017-07-30T23:30:30.486Z,18.60
2017-07-30T23:32:58.026Z,18.60
2017-07-30T23:35:25.467Z,18.70
2017-07-30T23:37:52.893Z,18.60
2017-07-30T23:40:20.338Z,18.60
2017-07-30T23:42:47.780Z,18.60
2017-07-30T23:45:15.256Z,18.60
2017-07-30T23:47:42.767Z,18.60
2017-07-30T23:50:10.206Z,18.70
2017-07-30T23:52:37.633Z,18.70
2017-07-30T23:55:05.074Z,18.70
2017-07-30T23:57:32.520Z,18.70
2017-07-30T23:59:59.954Z,18.60
